createdAt,value
2022-12-29T00:00:08.693Z,98265.59
2022-12-29T00:03:20.923Z,98257.25
2022-12-29T00:06:27.950Z,98255.69
2022-12-29T00:09:33.608Z,98256.59
2022-12-29T00:12:55.634Z,98255.75
2022-12-29T00:16:04.099Z,98254.25
2022-12-29T00:19:30.449Z,98233.94
2022-12-29T00:22:51.661Z,98247.50
2022-12-29T00:26:13.588Z,98242.28
2022-12-29T00:29:35.396Z,98237.06
2022-12-29T00:33:00.023Z,98242.31
2022-12-29T00:36:11.327Z,98238.06
2022-12-29T00:39:38.487Z,98247.66
2022-12-29T00:42:59.807Z,98231.22
2022-12-29T00:46:06.329Z,98235.84
2022-12-29T00:49:35.922Z,98213.19
2022-12-29T00:52:42.141Z,98213.09
2022-12-29T00:55:48.869Z,98234.25
2022-12-29T00:58:55.158Z,98235.25
2022-12-29T01:02:17.690Z,98240.44
2022-12-29T01:05:29.491Z,98223.25
2022-12-29T01:08:35.583Z,98227.69
2022-12-29T01:11:40.852Z,98223.94
2022-12-29T01:14:46.811Z,98221.97
2022-12-29T01:17:53.119Z,98224.41
2022-12-29T01:21:08.689Z,98226.03
2022-12-29T01:24:17.887Z,98223.31
2022-12-29T01:27:23.574Z,98219.09
2022-12-29T01:30:29.989Z,98217.53
2022-12-29T01:33:35.394Z,98221.16
2022-12-29T01:36:44.457Z,98225.69
2022-12-29T01:39:50.906Z,98228.44
2022-12-29T01:42:57.128Z,98246.16
2022-12-29T01:46:02.745Z,98250.41
2022-12-29T01:49:21.122Z,98250.56
2022-12-29T01:52:36.892Z,98243.00
2022-12-29T01:55:53.362Z,98239.59
2022-12-29T01:59:09.893Z,98227.50
2022-12-29T02:02:18.051Z,98237.81
2022-12-29T02:05:36.159Z,98221.22
2022-12-29T02:08:47.205Z,98216.31
2022-12-29T02:11:52.911Z,98213.31
2022-12-29T02:15:06.486Z,98207.22
2022-12-29T02:18:33.238Z,98205.22
2022-12-29T02:22:04.388Z,98206.63
2022-12-29T02:25:59.958Z,98202.28
2022-12-29T02:29:56.494Z,98184.25
2022-12-29T02:33:25.423Z,98196.03
2022-12-29T02:36:46.882Z,98198.66
2022-12-29T02:40:06.488Z,98205.81
2022-12-29T02:43:28.622Z,98192.38
2022-12-29T02:46:47.183Z,98186.75
2022-12-29T02:50:10.152Z,98191.19
2022-12-29T02:53:44.057Z,98190.34
2022-12-29T02:56:46.731Z,98180.66
2022-12-29T03:00:00.914Z,98182.19
2022-12-29T03:03:32.778Z,98177.59
2022-12-29T03:07:00.430Z,98196.03
2022-12-29T03:10:23.689Z,98193.22
2022-12-29T03:13:59.643Z,98186.78
2022-12-29T03:17:14.927Z,98187.94
2022-12-29T03:20:30.393Z,98153.00
2022-12-29T03:23:43.959Z,98179.09
2022-12-29T03:26:55.451Z,98179.09
2022-12-29T03:30:08.159Z,98185.97
2022-12-29T03:33:21.073Z,98184.53
2022-12-29T03:36:40.785Z,98180.47
2022-12-29T03:39:51.195Z,98172.78
2022-12-29T03:42:59.485Z,98171.88
2022-12-29T03:46:08.061Z,98157.34
2022-12-29T03:49:14.052Z,98167.19
2022-12-29T03:52:20.554Z,98154.53
2022-12-29T03:55:29.676Z,98136.75
2022-12-29T03:58:36.824Z,98123.09
2022-12-29T04:01:51.565Z,98132.00
2022-12-29T04:04:58.660Z,98128.63
2022-12-29T04:08:04.364Z,98122.53
2022-12-29T04:11:13.348Z,98115.56
2022-12-29T04:14:20.545Z,98101.91
2022-12-29T04:17:27.061Z,98103.56
2022-12-29T04:20:48.885Z,98108.78
2022-12-29T04:23:55.859Z,98115.94
2022-12-29T04:27:04.413Z,98112.56
2022-12-29T04:30:58.282Z,98113.84
2022-12-29T04:34:08.974Z,98120.06
2022-12-29T04:37:15.273Z,98118.56
2022-12-29T04:40:21.169Z,98016.03
2022-12-29T04:43:30.814Z,98096.28
2022-12-29T04:46:56.368Z,98098.06
2022-12-29T04:50:30.805Z,98096.28
2022-12-29T04:53:47.082Z,98096.28
2022-12-29T04:56:53.332Z,98103.78
2022-12-29T05:00:03.140Z,98106.31
2022-12-29T05:03:09.811Z,98107.16
2022-12-29T05:06:18.305Z,98092.22
2022-12-29T05:09:25.889Z,98094.56
2022-12-29T05:12:34.974Z,98088.75
2022-12-29T05:15:44.877Z,98088.38
2022-12-29T05:18:50.633Z,98087.38
2022-12-29T05:21:57.182Z,98105.28
2022-12-29T05:25:02.932Z,98100.66
2022-12-29T05:28:10.244Z,98098.81
2022-12-29T05:31:28.065Z,98104.03
2022-12-29T05:34:34.436Z,98094.88
2022-12-29T05:37:40.325Z,98078.59
2022-12-29T05:40:47.910Z,98077.56
2022-12-29T05:44:09.841Z,98077.16
2022-12-29T05:47:34.041Z,98071.84
2022-12-29T05:50:52.026Z,98062.31
2022-12-29T05:54:04.246Z,98058.66
2022-12-29T05:57:09.692Z,98071.41
2022-12-29T06:00:19.401Z,98044.50
2022-12-29T06:03:28.704Z,98075.41
2022-12-29T06:06:35.507Z,98064.69
2022-12-29T06:09:42.273Z,98061.00
2022-12-29T06:12:50.210Z,98045.75
2022-12-29T06:15:55.782Z,98039.41
2022-12-29T06:19:08.267Z,98040.75
2022-12-29T06:22:15.038Z,98036.81
2022-12-29T06:25:22.915Z,98025.03
2022-12-29T06:28:28.458Z,98031.78
2022-12-29T06:31:34.883Z,98041.22
2022-12-29T06:34:43.525Z,98043.78
2022-12-29T06:37:49.773Z,98055.88
2022-12-29T06:40:55.642Z,98060.19
2022-12-29T06:44:17.366Z,98065.38
2022-12-29T06:47:30.003Z,98061.09
2022-12-29T06:50:39.556Z,98050.66
2022-12-29T06:53:45.035Z,98043.59
2022-12-29T06:56:51.854Z,98046.88
2022-12-29T06:59:58.452Z,98039.50
2022-12-29T07:03:05.109Z,98035.69
2022-12-29T07:06:13.599Z,98032.09
2022-12-29T07:09:20.710Z,98030.88
2022-12-29T07:12:26.113Z,98033.72
2022-12-29T07:15:32.699Z,98037.75
2022-12-29T07:18:38.998Z,98036.63
2022-12-29T07:21:48.082Z,98028.03
2022-12-29T07:24:53.470Z,98034.13
2022-12-29T07:27:59.809Z,98033.09
2022-12-29T07:31:05.971Z,98040.28
2022-12-29T07:34:13.010Z,98040.16
2022-12-29T07:37:22.012Z,98047.16
2022-12-29T07:40:29.183Z,98046.16
2022-12-29T07:43:35.189Z,98053.22
2022-12-29T07:47:01.947Z,98049.47
2022-12-29T07:50:09.859Z,98059.13
2022-12-29T07:53:19.499Z,98056.91
2022-12-29T07:56:25.000Z,98062.88
2022-12-29T07:59:31.568Z,98063.16
2022-12-29T08:02:37.213Z,98061.59
2022-12-29T08:05:43.769Z,98051.06
2022-12-29T08:08:52.192Z,98038.91
2022-12-29T08:11:59.304Z,98050.06
2022-12-29T08:15:04.767Z,98053.38
2022-12-29T08:18:11.234Z,98046.28
2022-12-29T08:21:16.737Z,98046.75
2022-12-29T08:24:26.512Z,98057.56
2022-12-29T08:27:32.104Z,98051.16
2022-12-29T08:30:40.354Z,98060.22
2022-12-29T08:33:45.984Z,98051.63
2022-12-29T08:36:55.288Z,98064.25
2022-12-29T08:40:05.018Z,98056.06
2022-12-29T08:43:13.646Z,98063.91
2022-12-29T08:46:21.288Z,98066.91
2022-12-29T08:49:27.641Z,98065.97
2022-12-29T08:52:33.064Z,98060.28
2022-12-29T08:55:42.217Z,98066.19
2022-12-29T08:58:47.842Z,98048.09
2022-12-29T09:01:54.201Z,98060.22
2022-12-29T09:05:00.256Z,98070.19
2022-12-29T09:08:06.778Z,98062.19
2022-12-29T09:11:20.227Z,98068.34
2022-12-29T09:14:26.702Z,98069.50
2022-12-29T09:17:50.241Z,98065.22
2022-12-29T09:21:01.832Z,98057.53
2022-12-29T09:24:07.487Z,98056.03
2022-12-29T09:27:16.878Z,98064.59
2022-12-29T09:30:24.399Z,98062.53
2022-12-29T09:33:31.021Z,98065.97
2022-12-29T09:36:36.759Z,98056.84
2022-12-29T09:39:44.785Z,98051.31
2022-12-29T09:43:16.792Z,98051.63
2022-12-29T09:46:30.826Z,98043.09
2022-12-29T09:49:48.499Z,98053.41
2022-12-29T09:53:09.018Z,98048.00
2022-12-29T09:56:22.476Z,98035.78
2022-12-29T09:59:44.516Z,98052.13
2022-12-29T10:02:57.354Z,98040.47
2022-12-29T10:06:15.828Z,98042.84
2022-12-29T10:09:38.496Z,98038.63
2022-12-29T10:13:10.724Z,98041.81
2022-12-29T10:16:32.379Z,98035.72
2022-12-29T10:20:11.479Z,98028.53
2022-12-29T10:23:40.226Z,98034.72
2022-12-29T10:26:50.943Z,98030.78
2022-12-29T10:30:02.044Z,98031.22
2022-12-29T10:33:21.898Z,98026.22
2022-12-29T10:36:39.794Z,98023.59
2022-12-29T10:39:55.374Z,98013.44
2022-12-29T10:43:03.061Z,98019.50
2022-12-29T10:46:16.878Z,98014.47
2022-12-29T10:49:25.778Z,98006.50
2022-12-29T10:52:37.251Z,97991.88
2022-12-29T10:55:46.529Z,98000.53
2022-12-29T10:58:55.523Z,98021.53
2022-12-29T11:02:26.405Z,98014.56
2022-12-29T11:05:44.534Z,98003.50
2022-12-29T11:09:01.103Z,98007.84
2022-12-29T11:12:25.527Z,97997.22
2022-12-29T11:15:31.985Z,97997.03
2022-12-29T11:18:41.674Z,98006.31
2022-12-29T11:21:49.855Z,98006.06
2022-12-29T11:24:59.143Z,98014.63
2022-12-29T11:28:18.201Z,98005.53
2022-12-29T11:31:26.554Z,98012.00
2022-12-29T11:34:37.507Z,97999.16
2022-12-29T11:37:46.618Z,98003.56
2022-12-29T11:40:53.592Z,98003.41
2022-12-29T11:44:05.083Z,97970.53
2022-12-29T11:47:25.720Z,97999.94
2022-12-29T11:50:37.973Z,98000.66
2022-12-29T11:53:54.121Z,97991.63
2022-12-29T11:57:12.884Z,98003.63
2022-12-29T12:00:22.952Z,97999.84
2022-12-29T12:03:36.208Z,98008.94
2022-12-29T12:06:53.394Z,98005.06
2022-12-29T12:10:08.809Z,97998.66
2022-12-29T12:13:29.522Z,97999.94
2022-12-29T12:16:45.694Z,98003.13
2022-12-29T12:20:03.950Z,97999.25
2022-12-29T12:23:30.039Z,98005.84
2022-12-29T12:26:59.169Z,97999.59
2022-12-29T12:30:13.652Z,97991.19
2022-12-29T12:33:31.662Z,97990.53
2022-12-29T12:37:08.153Z,97987.59
2022-12-29T12:40:44.073Z,97992.63
2022-12-29T12:44:04.477Z,97994.34
2022-12-29T12:47:43.380Z,97977.59
2022-12-29T12:51:08.371Z,97982.78
2022-12-29T12:54:42.775Z,97966.69
2022-12-29T12:58:05.719Z,97970.56
2022-12-29T13:01:42.360Z,97976.66
2022-12-29T13:05:28.226Z,97984.53
2022-12-29T13:09:26.179Z,97976.56
2022-12-29T13:12:46.850Z,97988.22
2022-12-29T13:16:13.779Z,97981.38
2022-12-29T13:19:39.520Z,97977.81
2022-12-29T13:23:01.147Z,97982.97
2022-12-29T13:26:24.251Z,97980.44
2022-12-29T13:29:44.692Z,97986.56
2022-12-29T13:33:14.949Z,97984.41
2022-12-29T13:36:39.335Z,97983.34
2022-12-29T13:39:55.660Z,97980.00
2022-12-29T13:43:03.798Z,97985.38
2022-12-29T13:46:21.218Z,97987.63
2022-12-29T13:49:27.896Z,97991.16
2022-12-29T13:52:50.061Z,97997.69
2022-12-29T13:56:09.007Z,97991.50
2022-12-29T13:59:31.993Z,97991.38
2022-12-29T14:03:06.956Z,97999.16
2022-12-29T14:06:30.015Z,97993.47
2022-12-29T14:11:14.733Z,97988.75
2022-12-29T14:14:30.511Z,97990.19
2022-12-29T14:18:09.769Z,97989.13
2022-12-29T18:05:34.998Z,98012.56
2022-12-29T18:08:44.245Z,98011.03
2022-12-29T18:11:49.682Z,98019.41
2022-12-29T18:14:56.263Z,98021.91
2022-12-29T18:18:06.665Z,98015.97
2022-12-29T18:21:22.236Z,98008.13
2022-12-29T18:24:28.594Z,98017.69
2022-12-29T18:27:34.861Z,98017.63
2022-12-29T18:30:41.332Z,98034.25
2022-12-29T18:33:47.732Z,98018.91
2022-12-29T18:36:56.017Z,98028.53
2022-12-29T18:40:03.515Z,98024.38
2022-12-29T18:43:09.343Z,98018.09
2022-12-29T18:46:22.369Z,98012.00
2022-12-29T18:49:29.299Z,98013.53
2022-12-29T18:52:38.312Z,98011.16
2022-12-29T18:55:43.695Z,98014.31
2022-12-29T18:58:50.018Z,98000.22
2022-12-29T19:01:56.199Z,98012.19
2022-12-29T19:05:07.478Z,98000.06
2022-12-29T19:08:17.704Z,97992.97
2022-12-29T19:11:24.435Z,97986.22
2022-12-29T19:14:29.878Z,97973.66
2022-12-29T19:17:44.542Z,98013.72
2022-12-29T19:20:57.235Z,98019.22
2022-12-29T19:24:06.376Z,98029.84
2022-12-29T19:27:20.166Z,98032.78
2022-12-29T19:30:36.612Z,98038.88
2022-12-29T19:33:42.439Z,98035.97
2022-12-29T19:36:49.549Z,98040.72
2022-12-29T19:39:57.843Z,98040.53
2022-12-29T19:43:04.233Z,98047.88
2022-12-29T19:46:11.969Z,98020.81
2022-12-29T19:49:18.352Z,98029.75
2022-12-29T19:52:23.901Z,98030.50
2022-12-29T19:55:33.041Z,98036.94
2022-12-29T19:58:46.670Z,98038.00
2022-12-29T20:01:54.274Z,98027.88
2022-12-29T20:05:00.671Z,98028.53
2022-12-29T20:08:07.727Z,98033.19
2022-12-29T20:11:19.466Z,98019.19
2022-12-29T20:14:26.018Z,98004.69
2022-12-29T20:18:02.631Z,97998.50
2022-12-29T20:21:04.820Z,98013.63
2022-12-29T20:24:10.599Z,98017.78
2022-12-29T20:27:19.931Z,98023.00
2022-12-29T20:30:25.520Z,98025.44
2022-12-29T20:33:34.505Z,98030.75
2022-12-29T20:36:44.842Z,98026.84
2022-12-29T20:39:51.781Z,98016.38
2022-12-29T20:43:00.244Z,98007.63
2022-12-29T20:46:06.704Z,97999.03
2022-12-29T20:49:12.224Z,98002.56
2022-12-29T20:52:19.437Z,98005.53
2022-12-29T20:55:24.833Z,98011.41
2022-12-29T20:58:52.528Z,98030.03
2022-12-29T21:02:01.742Z,98033.56
2022-12-29T21:05:25.622Z,98009.28
2022-12-29T21:08:33.258Z,98013.09
2022-12-29T21:11:39.678Z,98016.50
2022-12-29T21:14:47.961Z,98015.69
2022-12-29T21:17:54.342Z,98018.03
2022-12-29T21:21:00.556Z,98032.94
2022-12-29T21:24:08.271Z,98032.94
2022-12-29T21:27:13.684Z,98037.22
2022-12-29T21:30:22.743Z,98042.16
2022-12-29T21:33:29.013Z,98040.28
2022-12-29T21:36:35.914Z,98042.00
2022-12-29T21:39:41.480Z,98048.91
2022-12-29T21:42:47.937Z,98036.59
2022-12-29T21:45:56.186Z,98049.50
2022-12-29T21:49:02.557Z,98036.06
2022-12-29T21:52:08.530Z,98034.59
2022-12-29T21:55:14.803Z,98042.72
2022-12-29T21:58:33.114Z,98039.91
2022-12-29T22:01:57.850Z,98045.34
2022-12-29T22:05:19.083Z,98054.41
2022-12-29T22:08:41.009Z,98055.66
2022-12-29T22:12:02.042Z,98052.44
2022-12-29T22:15:10.194Z,98064.75
2022-12-29T22:18:18.314Z,98071.81
2022-12-29T22:21:24.535Z,98060.94
2022-12-29T22:24:29.932Z,98068.56
2022-12-29T22:27:36.423Z,98070.13
2022-12-29T22:30:41.932Z,98069.13
2022-12-29T22:33:51.346Z,98072.66
2022-12-29T22:36:56.838Z,98072.13
2022-12-29T22:40:03.126Z,98067.13
2022-12-29T22:43:13.099Z,98057.38
2022-12-29T22:46:20.032Z,98071.78
2022-12-29T22:49:28.426Z,98075.25
2022-12-29T22:52:34.746Z,98078.13
2022-12-29T22:55:40.188Z,98078.25
2022-12-29T22:58:48.945Z,98081.78
2022-12-29T23:01:54.661Z,98075.03
2022-12-29T23:05:05.305Z,98072.34
2022-12-29T23:08:11.330Z,98066.75
2022-12-29T23:11:18.323Z,98075.66
2022-12-29T23:14:23.739Z,98069.19
2022-12-29T23:17:30.264Z,98066.53
2022-12-29T23:20:38.903Z,98071.59
2022-12-29T23:23:57.866Z,97871.72
2022-12-29T23:27:03.328Z,98061.31
2022-12-29T23:30:11.291Z,98066.19
2022-12-29T23:33:16.684Z,98052.09
2022-12-29T23:36:26.057Z,98047.38
2022-12-29T23:39:31.492Z,98042.88
2022-12-29T23:42:37.790Z,98052.47
2022-12-29T23:45:48.943Z,98045.72
2022-12-29T23:48:58.127Z,98050.25
2022-12-29T23:52:06.362Z,98051.94
2022-12-29T23:55:13.943Z,98045.41
2022-12-29T23:58:19.342Z,98043.72
